Blue Oak Ranch Reserve, California Weather observations

Data are for 10 minute period ending at time listed.
 Day   Time   Solar   Ave.   Ave.  Ave.  Vector  Max.   Baro.   Total    
  of    of     Rad.   Air    Rel.  Wind   Wind   Wind  Press.  Precip.   
Year   Day            Temp.  Hum.  Speed  Dir.   Gust                    
2017   (PST)  Kw/m2    F      %     mph   deg.    mph    mb.     in.     
-------------------------------------------------------------------------
 293    8:20   0.22   50.0    86    2.7   282     5.3   950.4    0.00 
 293    8:30   0.15   50.6    85    2.6   263     5.0   950.4    0.00 
 293    8:40   0.24   50.8    86    3.2   258     5.8   950.5    0.00 
 293    8:50   0.19   50.0    87    3.8   236     6.2   950.4    0.00 
 293    9:00   0.16   50.1    86    3.6   233     5.8   950.6    0.00 
 293    9:10   0.13   49.7    87    3.2   241     5.5   950.8    0.00 
 293    9:20   0.15   50.1    87    3.2   233     5.6   950.8    0.00 
 293    9:30   0.18   50.1    86    3.4   228     6.9   950.9    0.00 
 293    9:40   0.26   50.9    83    3.1   225     6.4   950.8    0.00 
 293    9:50   0.14   50.6    84    2.9   220     4.7   950.9    0.00 
 293   10:00   0.42   51.3    82    4.2   239     7.3   950.9    0.00 
 293   10:10   0.14   51.9    77    3.7   243     7.4   950.9    0.00 
 293   10:20   0.19   51.3    81    2.3   238     6.6   950.8    0.00 
 293   10:30   0.47   52.4    78    2.1   271     6.4   950.8    0.00 
 293   10:40   0.14   53.5    72    3.8   263     8.8   950.8    0.00 
 293   10:50   0.08   52.1    78    3.5   268     6.9   950.9    0.00 
 293   11:00   0.27   52.0    81    3.3   255     5.7   951.1    0.00 
 293   11:10   0.22   53.0    77    2.9   255     7.1   951.0    0.00 
 293   11:20   0.39   52.9    75    4.7   276     7.9   951.1    0.00 
 293   11:30   0.17   54.2    74    4.5   260     8.4   951.0    0.00 
 293   11:40   0.35   52.7    78    5.6   271     9.9   951.0    0.00 
 293   11:50   0.36   54.0    74    5.3   253     8.9   951.2    0.00 
 293   12:00   0.28   54.2    71    5.8   269     9.7   951.1    0.00 
 293   12:10   0.49   54.3    70    5.9   285     9.8   951.0    0.00 
 293   12:20   0.42   54.3    69    6.1   293    10.7   950.8    0.00 
 293   12:30   0.53   54.0    69    7.1   298    11.8   950.8    0.00 
 293   12:40   0.53   55.1    65    6.4   297    12.5   950.7    0.00 
 293   12:50   0.39   55.1    63    6.3   284    12.1   950.7    0.00 
 293   13:00   0.67   56.0    62    8.9   292    14.2   950.7    0.00 
 293   13:10   0.60   55.8    61    8.1   286    13.2   950.9    0.00 
 293   13:20   0.57   56.8    58    6.7   283    12.0   950.9    0.00 
 293   13:30   0.38   56.3    61    8.8   284    13.4   951.0    0.00 
 293   13:40   0.60   56.3    62    8.8   289    17.2   950.9    0.00 
 293   13:50   0.47   56.6    61    8.3   280    15.9   950.9    0.00 
 293   14:00   0.39   56.1    60    7.5   284    14.2   950.7    0.00 
 293   14:10   0.43   55.9    58    8.3   284    16.3   950.6    0.00 
 293   14:20   0.24   55.7    60    8.3   294    14.1   950.7    0.00 
 293   14:30   0.34   55.7    59    7.7   269    14.4   950.7    0.00 
 293   14:40   0.16   54.9    59    8.9   309    13.9   950.7    0.00 
 293   14:50   0.26   53.9    62    6.4   302    10.8   950.7    0.00 
 293   15:00   0.39   55.4    61    8.0   284    15.1   950.7    0.00 
 293   15:10   0.49   56.3    59   10.2   282    16.7   950.7    0.00 
 293   15:20   0.45   56.6    59    8.5   282    14.7   950.9    0.00 
 293   15:30   0.24   55.8    60    8.9   292    14.2   951.2    0.01 
 293   15:40   0.26   54.9    63   10.2   277    17.5   951.3    0.00 
 293   15:50   0.26   54.4    63   11.2   289    16.3   951.3    0.00 
 293   16:00   0.25   54.0    64   10.9   288    18.3   951.1    0.00 
 293   16:10   0.22   53.8    66   11.1   284    16.5   950.9    0.00 
 293   16:20   0.15   53.1    68    8.7   289    14.8   950.9    0.00 
 293   16:30   0.14   52.6    69    8.9   282    14.0   951.0    0.00 
 293   16:40   0.15   52.6    70    7.0   289    11.0   951.1    0.00 
 293   16:50   0.10   52.1    72    8.2   295    14.8   951.2    0.00 
 293   17:00   0.08   51.6    73    9.7   288    14.7   951.1    0.00 
 293   17:10   0.06   51.1    74    9.1   297    13.8   951.1    0.00 
 293   17:20   0.03   50.3    75    8.0   299    13.9   951.1    0.00 
 293   17:30   0.01   49.8    75    8.4   304    13.8   951.2    0.00 
 293   17:40   0.00   49.3    77    7.7   289    13.2   951.3    0.00 
 293   17:50   0.00   49.0    79    6.7   298    10.8   951.6    0.00 
 293   18:00   0.00   48.8    81    5.8   286     9.9   951.9    0.00 
 293   18:10   0.00   48.8    81    5.0   297     9.1   951.9    0.00 
 293   18:20   0.00   48.6    82    5.2   316    11.5   952.1    0.00 
 293   18:30   0.00   48.3    83    6.8   315    12.9   952.0    0.00 
 293   18:40   0.00   48.2    84    6.5   316    13.4   952.0    0.00 
 293   18:50   0.00   48.1    85    7.2   312    11.4   951.9    0.00 
 293   19:00   0.00   47.9    86    6.6   318    13.8   952.1    0.00 
 293   19:10   0.00   47.9    86    9.3   313    15.5   952.0    0.00 
 293   19:20   0.00   47.9    86    6.2   318    10.3   952.3    0.00 
 293   19:30   0.00   47.8    86    6.5   322    12.1   952.4    0.00 
 293   19:40   0.00   47.7    86    7.5   312    12.1   952.3    0.00 
 293   19:50   0.00   47.5    86    5.9   322    10.7   952.5    0.00 
 293   20:00   0.00   47.4    86    5.0   325     9.8   952.5    0.00 
 293   20:10   0.00   47.3    85    7.1   327    14.8   952.5    0.00 
 293   20:20   0.00   47.3    85    5.9   333     9.3   952.5    0.00 
 293   20:30   0.00   47.2    85    6.8   317    10.6   952.5    0.00 
 293   20:40   0.00   47.0    85    3.9   332     8.3   952.6    0.00 
 293   20:50   0.00   46.5    86    3.3   333     6.7   952.6    0.00 
 293   21:00   0.00   46.6    86    3.4   334     5.2   952.9    0.00 
 293   21:10   0.00   46.3    86    4.4   312     6.1   952.9    0.00 
 293   21:20   0.00   45.9    87    3.5   320     5.6   952.9    0.00 
 293   21:30   0.00   45.9    85    3.6   326     6.1   952.9    0.00 
 293   21:40   0.00   45.9    84    1.1   335     3.6   953.2    0.00 
 293   21:50   0.00   44.9    86    1.5   347     3.3   953.4    0.00 
 293   22:00   0.00   44.7    88    1.8   326     4.8   953.3    0.00 
 293   22:10   0.00   44.1    88    0.7    42     4.1   953.5    0.00 
 293   22:20   0.00   44.0    91    3.7   359     5.3   953.5    0.00 
 293   22:30   0.00   45.1    89    3.4     3     4.6   953.4    0.00 
 293   22:40   0.00   44.8    88    2.9    29     4.6   953.5    0.00 
 293   22:50   0.00   44.7    88    2.8   335     5.1   953.6    0.00 
 293   23:00   0.00   43.8    89    1.6   342     3.2   953.7    0.00 
 293   23:10   0.00   42.8    91    1.0    85     3.1   953.7    0.00 
 293   23:20   0.00   42.1    92    0.7   166     2.1   953.7    0.00 
 293   23:30   0.00   42.3    93    2.7    41     4.1   953.7    0.00 
 293   23:40   0.00   42.1    92    1.1   303     3.4   953.7    0.00 
 293   23:50   0.00   41.9    93    1.4   305     3.2   953.6    0.00 
 294    0:00   0.00   41.2    93    0.5    23     2.7   953.7    0.00 
 294    0:10   0.00   41.0    93    1.6    54     3.0   953.7    0.00 
 294    0:20   0.00   40.4    94    1.2   319     3.5   953.6    0.00 
 294    0:30   0.00   40.2    94    2.2   192     4.5   953.3    0.00 
 294    0:40   0.00   39.9    95    2.5    28     4.6   953.2    0.00 
 294    0:50   0.00   40.8    94    1.5   196     3.7   953.1    0.00 
 294    1:00   0.00   39.9    94    0.8   125     2.7   953.1    0.00 
 294    1:10   0.00   40.0    94    0.8   290     2.2   953.2    0.00 
 294    1:20   0.00   39.4    94    1.7    32     4.1   953.2    0.00 
 294    1:30   0.00   39.0    94    1.2    20     2.9   953.2    0.00 
 294    1:40   0.00   39.3    95    1.4    32     2.6   953.3    0.00 
 294    1:50   0.00   39.1    94    1.4   295     3.4   953.3    0.00 
 294    2:00   0.00   39.2    95    0.3   316     1.3   953.6    0.00 
 294    2:10   0.00   39.0    94    1.3    69     3.1   953.7    0.00 
 294    2:20   0.00   38.5    95    1.5    67     2.9   953.7    0.00 
 294    2:30   0.00   38.5    95    2.2    37     3.4   953.5    0.00 
 294    2:40   0.00   38.6    95    1.1    73     3.1   953.3    0.00 
 294    2:50   0.00   38.3    95    0.4   330     2.3   953.3    0.00 
 294    3:00   0.00   38.4    95    1.7   302     2.9   953.3    0.00 
 294    3:10   0.00   38.4    94    1.2    42     3.4   953.4    0.00 
 294    3:20   0.00   38.7    95    0.7   336     2.3   953.4    0.00 
 294    3:30   0.00   38.2    94    0.1   356     1.0   953.6    0.00 
 294    3:40   0.00   38.2    94    0.7    38     2.4   953.7    0.00 
 294    3:50   0.00   37.9    95    0.8    94     2.9   953.7    0.00 
 294    4:00   0.00   38.1    95    1.9    67     3.1   953.7    0.00 
 294    4:10   0.00   37.8    95    1.5    58     3.6   953.7    0.00 
 294    4:20   0.00   37.8    94    0.8    20     2.7   953.8    0.00 
 294    4:30   0.00   37.6    95    0.3    23     1.4   953.9    0.00 
 294    4:40   0.00   38.1    95    1.2    16     2.3   954.0    0.00 
 294    4:50   0.00   37.8    94    0.3    32     1.4   954.1    0.00 
 294    5:00   0.00   37.4    95    2.5   304     4.2   954.3    0.00 
 294    5:10   0.00   37.6    95    1.1    71     1.9   954.4    0.00 
 294    5:20   0.00   37.9    95    1.2    65     2.5   954.4    0.00 
 294    5:30   0.00   37.6    95    0.3    79     2.0   954.4    0.00 
 294    5:40   0.00   37.6    95    0.9    45     2.3   954.4    0.00 
 294    5:50   0.00   37.3    95    1.7   299     2.8   954.4    0.00 
 294    6:00   0.00   37.5    95    1.3   315     2.6   954.4    0.00 
 294    6:10   0.00   37.6    95    1.5   318     3.8   954.6    0.00 
 294    6:20   0.01   37.5    95    1.9   328     3.9   954.6    0.00 
 294    6:30   0.01   38.2    95    1.3   338     2.5   954.6    0.00 
 294    6:40   0.01   38.3    95    1.2   302     3.3   954.6    0.00 
 294    6:50   0.01   38.4    94    2.5   278     3.2   954.8    0.00 
 294    7:00   0.04   38.0    94    1.4   304     3.0   955.0    0.00 
 294    7:10   0.09   38.8    95    1.7    61     2.7   955.1    0.00 
 294    7:20   0.11   41.2    92    1.8    67     2.9   955.2    0.00 
 294    7:30   0.16   43.8    90    1.0    81     1.9   955.4    0.00 
 294    7:40   0.19   48.0    82    0.2    93     1.0   955.5    0.00 
 294    7:50   0.21   50.3    71    0.1    99     1.2   955.6    0.00 
 294    8:00   0.21   50.8    72    1.0   306     4.2   955.6    0.00 
 294    8:10   0.27   50.7    69    4.6   297     7.1   955.6    0.00 

Return to Blue Oak Ranch Reserve graphs page.


Western Regional Climate Center,wrcc@dri.edu